Frailey, Pennsylvania
Current Conditions -  °F | °C
As of 7:58 PM on Tuesday 25 Nov 2014 (Local Time) from KMUI Reporting Station
Clear Clear  
Wind Chill: 35°   Ceiling: Unl
Heat Index: 35°   Visibility: 10mi
Dew Point: 30°   Wind: 2mph
Humidity: 81%   Direction: 330°NNW
Pressure: 30.12"   Gusts: NA
Location:  40.6079°N, 76.4334°W
Report Text: KMUI 260058Z AUTO 33002KT 10SM CLR 02/M01 A3012 RMK AO2 SLP206 T00181011 $
Loading
Personal Weather Stations






























Interactive Weather Map New forecast layout! Learn more

10-Day Weather Forecast

Advertisements
Track Severe Weather on mobile